Time;durP1;ratioP1;P1;durP2;ratioP2;P2;SDS_P1;SDS_P2;PMS_P1;PMS_P2;Temp;Humidity;BMP_temperature;BMP_pressure;BME280_temperature;BME280_humidity;BME280_pressure;Samples;Min_cycle;Max_cycle;Signal;HPM_P1;HPM_P2
2023/12/05 00:00:19;;;;;;;16.15;12.05;;;1.60;99.90;;;;;;5071481;28;20072;-72
2023/12/05 00:02:45;;;;;;;15.43;11.93;;;1.60;99.90;;;;;;5071816;28;20115;-72
2023/12/05 00:05:11;;;;;;;17.10;12.75;;;1.60;99.90;;;;;;5073012;28;20066;-72
2023/12/05 00:07:38;;;;;;;15.00;12.10;;;1.60;99.90;;;;;;5054756;28;20044;-72
2023/12/05 00:10:05;;;;;;;15.30;11.88;;;1.50;99.90;;;;;;5071383;28;20044;-72
2023/12/05 00:12:30;;;;;;;17.95;11.80;;;1.50;99.90;;;;;;5072722;28;20068;-72
2023/12/05 00:14:56;;;;;;;15.88;11.85;;;1.50;99.90;;;;;;5071430;28;20536;-72
2023/12/05 00:17:21;;;;;;;16.05;12.50;;;1.50;99.90;;;;;;5072917;28;20481;-72
2023/12/05 00:19:47;;;;;;;17.13;12.88;;;1.50;99.90;;;;;;5071339;28;20041;-73
2023/12/05 00:22:13;;;;;;;15.52;11.95;;;1.50;99.90;;;;;;5072538;28;20036;-73
2023/12/05 00:24:38;;;;;;;14.23;11.07;;;1.50;99.90;;;;;;5073826;28;20044;-73
2023/12/05 00:27:04;;;;;;;15.20;11.70;;;1.50;99.90;;;;;;5075298;28;20036;-72
2023/12/05 00:29:30;;;;;;;13.10;10.85;;;1.50;99.90;;;;;;5076141;28;20580;-72
2023/12/05 00:31:55;;;;;;;15.90;11.68;;;1.50;99.90;;;;;;5074991;28;20123;-73
2023/12/05 00:34:21;;;;;;;15.70;11.68;;;1.50;99.90;;;;;;5074895;28;20052;-72
2023/12/05 00:36:46;;;;;;;14.00;11.20;;;1.50;99.90;;;;;;5074859;28;20037;-72
2023/12/05 00:39:12;;;;;;;14.55;11.73;;;1.50;99.90;;;;;;5074785;28;20039;-72
2023/12/05 00:41:37;;;;;;;14.88;11.82;;;1.50;99.90;;;;;;5074766;28;20071;-72
2023/12/05 00:44:03;;;;;;;14.63;11.20;;;1.50;99.90;;;;;;5058375;28;20044;-72
2023/12/05 00:46:29;;;;;;;16.23;12.32;;;1.50;99.90;;;;;;5058102;28;20475;-72
2023/12/05 00:48:54;;;;;;;16.15;12.35;;;1.50;99.90;;;;;;5074961;28;20036;-72
2023/12/05 00:51:20;;;;;;;17.02;11.98;;;1.50;99.90;;;;;;5074608;28;20390;-73
2023/12/05 00:53:45;;;;;;;13.82;11.13;;;1.50;99.90;;;;;;5074554;28;20037;-72
2023/12/05 00:56:11;;;;;;;15.27;12.00;;;1.50;99.90;;;;;;5076070;28;20089;-73
2023/12/05 00:58:37;;;;;;;17.00;12.10;;;1.50;99.90;;;;;;5074533;28;20043;-73
2023/12/05 01:01:03;;;;;;;14.25;11.73;;;1.50;99.90;;;;;;5074386;28;20049;-73
2023/12/05 01:03:29;;;;;;;16.02;12.70;;;1.50;99.90;;;;;;5074418;28;20040;-73
2023/12/05 01:05:54;;;;;;;18.45;12.43;;;1.50;99.90;;;;;;5074650;28;20084;-73
2023/12/05 01:08:20;;;;;;;16.20;13.00;;;1.40;99.90;;;;;;5074316;28;20440;-73
2023/12/05 01:10:46;;;;;;;13.95;11.18;;;1.40;99.90;;;;;;5074257;28;20036;-72
2023/12/05 01:13:11;;;;;;;15.55;12.10;;;1.40;99.90;;;;;;5074165;28;20044;-73
2023/12/05 01:15:37;;;;;;;16.67;12.77;;;1.40;99.90;;;;;;5074222;28;20041;-73
2023/12/05 01:18:02;;;;;;;16.08;12.68;;;1.40;99.90;;;;;;5074153;28;20029;-73
2023/12/05 01:20:30;;;;;;;15.02;12.23;;;1.40;99.90;;;;;;5057413;28;20067;-72
2023/12/05 01:22:55;;;;;;;14.77;11.95;;;1.40;99.90;;;;;;5074201;28;20036;-72
2023/12/05 01:25:21;;;;;;;18.05;14.23;;;1.30;99.90;;;;;;5074274;28;20044;-73
2023/12/05 01:27:48;;;;;;;14.80;12.23;;;1.30;99.90;;;;;;5074444;28;20075;-73
2023/12/05 01:30:13;;;;;;;16.45;12.57;;;1.30;99.90;;;;;;5073831;28;20454;-72
2023/12/05 01:32:39;;;;;;;18.27;14.35;;;1.30;99.90;;;;;;5075414;28;20032;-72
2023/12/05 01:35:05;;;;;;;15.80;12.73;;;1.40;99.90;;;;;;5073297;28;20043;-72
2023/12/05 01:37:31;;;;;;;15.45;13.10;;;1.30;99.90;;;;;;5074158;28;20058;-72
2023/12/05 01:39:56;;;;;;;15.77;12.95;;;1.30;99.90;;;;;;5073998;28;20040;-72
2023/12/05 01:42:22;;;;;;;16.60;13.60;;;1.30;99.90;;;;;;5073718;28;20485;-72
2023/12/05 01:44:48;;;;;;;19.17;14.77;;;1.40;99.90;;;;;;5073928;28;20044;-72
2023/12/05 01:47:16;;;;;;;16.92;13.50;;;1.30;99.90;;;;;;5073879;28;20501;-72
2023/12/05 01:49:42;;;;;;;16.60;13.68;;;1.30;99.90;;;;;;5073485;28;20492;-72
2023/12/05 01:52:08;;;;;;;19.38;15.63;;;1.40;99.90;;;;;;5073459;28;20420;-73
2023/12/05 01:54:34;;;;;;;20.33;15.60;;;1.30;99.90;;;;;;5056800;28;20044;-72
2023/12/05 01:57:01;;;;;;;18.85;15.18;;;1.30;99.90;;;;;;5073373;28;20500;-72
2023/12/05 01:59:27;;;;;;;18.10;14.63;;;1.30;99.90;;;;;;5074514;28;20550;-72
2023/12/05 02:01:53;;;;;;;18.23;14.80;;;1.30;99.90;;;;;;5074813;28;20045;-73
2023/12/05 02:04:19;;;;;;;20.42;16.23;;;1.30;99.90;;;;;;5073250;28;20123;-73
2023/12/05 02:06:46;;;;;;;19.25;15.15;;;1.30;99.90;;;;;;5074746;28;20114;-72
2023/12/05 02:09:13;;;;;;;19.58;16.02;;;1.30;99.90;;;;;;5074599;28;20036;-73
2023/12/05 02:11:41;;;;;;;19.30;15.35;;;1.30;99.90;;;;;;5073109;28;20045;-73
2023/12/05 02:14:08;;;;;;;18.60;15.40;;;1.30;99.90;;;;;;5056305;28;20072;-73
2023/12/05 02:16:42;;;;;;;19.55;15.48;;;1.30;99.90;;;;;;5056405;28;20078;-73
2023/12/05 02:19:20;;;;;;;20.20;16.40;;;1.30;99.90;;;;;;5074457;28;20049;-72
2023/12/05 02:21:47;;;;;;;18.55;15.38;;;1.30;99.90;;;;;;5074288;28;20043;-72
2023/12/05 02:24:37;;;;;;;20.48;15.98;;;1.20;99.90;;;;;;5073180;28;20117;-72
2023/12/05 02:27:19;;;;;;;18.70;15.30;;;1.30;99.90;;;;;;5072866;28;20040;-73
2023/12/05 02:29:51;;;;;;;18.42;15.80;;;1.30;99.90;;;;;;5073951;28;20436;-73
2023/12/05 02:32:17;;;;;;;19.75;15.88;;;1.30;99.90;;;;;;5072945;28;20051;-73
2023/12/05 02:34:44;;;;;;;21.25;17.13;;;1.30;99.90;;;;;;5072561;28;20045;-73
2023/12/05 02:37:15;;;;;;;17.35;14.85;;;1.20;99.90;;;;;;5072583;28;20040;-73
2023/12/05 02:40:00;;;;;;;19.48;15.85;;;1.30;99.90;;;;;;5055905;28;20036;-73
2023/12/05 02:42:27;;;;;;;17.95;15.35;;;1.20;99.90;;;;;;5072770;28;20033;-73
2023/12/05 02:44:54;;;;;;;17.52;14.13;;;1.30;99.90;;;;;;5073967;28;20106;-72
2023/12/05 02:47:23;;;;;;;19.92;16.17;;;1.20;99.90;;;;;;5071655;28;20497;-73
2023/12/05 02:49:49;;;;;;;20.58;15.98;;;1.20;99.90;;;;;;5073848;28;20052;-73
2023/12/05 02:52:15;;;;;;;21.00;16.35;;;1.20;99.90;;;;;;5072328;28;20120;-73
2023/12/05 02:54:41;;;;;;;18.30;15.38;;;1.20;99.90;;;;;;5073421;28;20119;-73
2023/12/05 02:57:06;;;;;;;21.42;16.98;;;1.20;99.90;;;;;;5072530;28;20062;-72
2023/12/05 02:59:32;;;;;;;24.02;17.85;;;1.20;99.90;;;;;;5072175;28;20473;-72
2023/12/05 03:01:57;;;;;;;20.60;16.85;;;1.20;99.90;;;;;;5072461;28;20133;-72
2023/12/05 03:04:23;;;;;;;22.85;18.27;;;1.20;99.90;;;;;;5072168;28;20401;-72
2023/12/05 03:06:48;;;;;;;21.48;17.08;;;1.20;99.90;;;;;;5073674;28;20043;-72
2023/12/05 03:09:14;;;;;;;20.40;17.15;;;1.10;99.90;;;;;;5073549;28;20076;-72
2023/12/05 03:11:40;;;;;;;20.40;16.98;;;1.10;99.90;;;;;;5072045;28;20047;-72
2023/12/05 03:14:06;;;;;;;22.83;18.65;;;1.20;99.90;;;;;;5071913;28;20044;-72
2023/12/05 03:16:32;;;;;;;23.48;18.88;;;1.20;99.90;;;;;;5073522;28;20083;-72
2023/12/05 03:18:57;;;;;;;21.08;17.63;;;1.20;99.90;;;;;;5071919;28;20040;-72
2023/12/05 03:21:23;;;;;;;22.48;18.33;;;1.20;99.90;;;;;;5071774;28;20036;-72
2023/12/05 03:23:48;;;;;;;25.95;19.23;;;1.20;99.90;;;;;;5071993;28;20063;-72
2023/12/05 03:26:21;;;;;;;21.02;17.70;;;1.20;99.90;;;;;;5071860;28;20083;-72
2023/12/05 03:28:51;;;;;;;24.63;18.88;;;1.20;99.90;;;;;;5073765;28;20044;-72
2023/12/05 03:31:17;;;;;;;20.15;17.35;;;1.20;99.90;;;;;;5073320;28;20040;-72
2023/12/05 03:33:43;;;;;;;24.45;19.55;;;1.20;99.90;;;;;;5073303;28;20107;-72
2023/12/05 03:36:11;;;;;;;23.55;19.23;;;1.20;99.90;;;;;;5073057;28;20498;-72
2023/12/05 03:38:41;;;;;;;20.40;18.00;;;1.20;99.90;;;;;;5073335;28;20044;-72
2023/12/05 03:41:08;;;;;;;24.35;19.55;;;1.20;99.90;;;;;;5071758;28;20500;-72
2023/12/05 03:43:33;;;;;;;22.90;19.02;;;1.20;99.90;;;;;;5071774;28;20045;-72
2023/12/05 03:45:59;;;;;;;23.73;19.63;;;1.20;99.90;;;;;;5071991;28;20044;-72
2023/12/05 03:48:24;;;;;;;24.35;20.05;;;1.20;99.90;;;;;;5071988;28;20409;-72
2023/12/05 03:50:50;;;;;;;23.90;19.85;;;1.20;99.90;;;;;;5071630;28;20484;-72
2023/12/05 03:53:16;;;;;;;24.25;19.77;;;1.20;99.90;;;;;;5071613;28;20101;-72
2023/12/05 03:55:41;;;;;;;26.17;20.65;;;1.20;99.90;;;;;;5071675;28;20121;-72
2023/12/05 03:58:07;;;;;;;23.13;19.45;;;1.20;99.90;;;;;;5073004;28;20040;-72
2023/12/05 04:00:32;;;;;;;26.05;21.15;;;1.20;99.90;;;;;;5075643;28;20051;-72
2023/12/05 04:02:58;;;;;;;25.00;20.17;;;1.20;99.90;;;;;;5075645;28;20043;-72
2023/12/05 04:05:24;;;;;;;25.02;20.38;;;1.20;99.90;;;;;;5075813;28;20064;-72
2023/12/05 04:07:49;;;;;;;25.63;21.05;;;1.20;99.90;;;;;;5075752;28;20137;-72
2023/12/05 04:10:15;;;;;;;27.48;21.27;;;1.20;99.90;;;;;;5075401;28;20413;-72
2023/12/05 04:12:41;;;;;;;27.30;20.52;;;1.20;99.90;;;;;;5075701;28;20128;-72
2023/12/05 04:15:07;;;;;;;26.33;21.08;;;1.20;99.90;;;;;;5075305;28;20393;-72
2023/12/05 04:17:34;;;;;;;26.33;21.48;;;1.20;99.90;;;;;;5075598;28;20040;-72
2023/12/05 04:19:59;;;;;;;24.73;20.30;;;1.20;99.90;;;;;;5075205;28;20044;-72
2023/12/05 04:22:25;;;;;;;25.40;20.80;;;1.20;99.90;;;;;;5075113;28;20040;-72
2023/12/05 04:24:50;;;;;;;25.73;20.75;;;1.20;99.90;;;;;;5075149;28;20136;-72
2023/12/05 04:27:16;;;;;;;24.25;20.95;;;1.20;99.90;;;;;;5076633;28;20085;-72
2023/12/05 04:29:45;;;;;;;27.63;21.75;;;1.20;99.90;;;;;;5075577;28;20042;-72
2023/12/05 04:32:11;;;;;;;28.65;22.90;;;1.20;99.90;;;;;;5076509;28;20066;-73
2023/12/05 04:34:41;;;;;;;24.73;20.30;;;1.20;99.90;;;;;;5074876;28;20044;-72
2023/12/05 04:37:08;;;;;;;27.80;22.17;;;1.20;99.90;;;;;;5074984;28;20103;-72
2023/12/05 04:39:33;;;;;;;25.80;21.10;;;1.20;99.90;;;;;;5074815;28;20052;-72
2023/12/05 04:41:59;;;;;;;29.73;23.63;;;1.20;99.90;;;;;;5074847;28;20037;-72
2023/12/05 04:44:27;;;;;;;26.48;21.20;;;1.20;99.90;;;;;;5076328;28;20085;-72
2023/12/05 04:46:57;;;;;;;26.05;21.48;;;1.20;99.90;;;;;;5076243;28;20109;-72
2023/12/05 04:49:23;;;;;;;28.33;22.45;;;1.20;99.90;;;;;;5075835;28;20471;-72
2023/12/05 04:51:48;;;;;;;26.52;22.15;;;1.30;99.90;;;;;;5076193;28;20123;-72
2023/12/05 04:54:14;;;;;;;26.98;22.52;;;1.30;99.90;;;;;;5075722;28;20041;-72
2023/12/05 04:56:41;;;;;;;29.02;23.45;;;1.20;99.90;;;;;;5074842;28;20028;-72
2023/12/05 04:59:06;;;;;;;32.03;24.70;;;1.20;99.90;;;;;;5074459;28;20045;-72
2023/12/05 05:01:32;;;;;;;31.00;23.92;;;1.30;99.90;;;;;;5074502;28;20043;-72
2023/12/05 05:03:58;;;;;;;30.17;23.50;;;1.20;99.90;;;;;;5057737;28;20235;-72
2023/12/05 05:06:23;;;;;;;29.30;23.13;;;1.30;99.90;;;;;;5074625;28;20086;-72
2023/12/05 05:08:49;;;;;;;29.42;23.58;;;1.20;99.90;;;;;;5075890;28;20036;-72
2023/12/05 05:11:14;;;;;;;30.98;24.08;;;1.20;99.90;;;;;;5074836;28;20063;-72
2023/12/05 05:13:40;;;;;;;29.83;23.92;;;1.20;99.90;;;;;;5075671;28;20062;-72
2023/12/05 05:16:07;;;;;;;29.85;23.52;;;1.20;99.90;;;;;;5074240;28;20028;-72
2023/12/05 05:18:32;;;;;;;31.60;25.40;;;1.10;99.90;;;;;;5075744;28;20036;-72
2023/12/05 05:20:58;;;;;;;30.55;24.35;;;1.20;99.90;;;;;;5074138;28;20059;-72
2023/12/05 05:23:24;;;;;;;31.92;23.65;;;1.20;99.90;;;;;;5074049;28;20039;-72
2023/12/05 05:25:49;;;;;;;30.75;24.70;;;1.20;99.90;;;;;;5075576;28;20119;-72
2023/12/05 05:28:15;;;;;;;35.45;26.30;;;1.20;99.90;;;;;;5075525;28;20037;-72
2023/12/05 05:30:40;;;;;;;32.72;24.60;;;1.20;99.90;;;;;;5073925;28;20037;-72
2023/12/05 05:33:06;;;;;;;32.25;24.27;;;1.20;99.90;;;;;;5075433;28;20042;-72
2023/12/05 05:35:31;;;;;;;31.75;24.08;;;1.20;99.90;;;;;;5073818;28;20037;-72
2023/12/05 05:37:57;;;;;;;35.85;26.35;;;1.20;99.90;;;;;;5073847;28;20064;-72
2023/12/05 05:40:23;;;;;;;32.15;23.88;;;1.20;99.90;;;;;;5075233;28;20071;-72
2023/12/05 05:42:48;;;;;;;33.58;24.83;;;1.20;99.90;;;;;;5073767;28;20044;-72
2023/12/05 05:45:14;;;;;;;32.70;25.00;;;1.10;99.90;;;;;;5073932;28;20083;-72
2023/12/05 05:47:39;;;;;;;36.63;26.30;;;1.20;99.90;;;;;;5073907;28;20036;-72
2023/12/05 05:50:05;;;;;;;30.38;23.80;;;1.20;99.90;;;;;;5073489;28;20051;-72
2023/12/05 05:52:31;;;;;;;31.42;24.20;;;1.20;99.90;;;;;;5073885;28;20041;-72
2023/12/05 05:54:57;;;;;;;32.83;25.02;;;1.10;99.90;;;;;;5074663;28;20114;-72
2023/12/05 05:57:22;;;;;;;34.67;26.27;;;1.20;99.90;;;;;;5074922;28;20040;-72
2023/12/05 05:59:48;;;;;;;36.28;25.83;;;1.20;99.90;;;;;;5073342;28;20076;-72
2023/12/05 06:02:14;;;;;;;33.50;24.92;;;1.20;99.90;;;;;;5074834;28;20036;-72
2023/12/05 06:04:40;;;;;;;36.10;26.60;;;1.20;99.90;;;;;;5073290;28;20048;-72
2023/12/05 06:07:06;;;;;;;34.42;25.33;;;1.20;99.90;;;;;;5073284;28;20119;-72
2023/12/05 06:09:32;;;;;;;33.38;24.17;;;1.20;99.90;;;;;;5074652;28;20087;-72
2023/12/05 06:11:58;;;;;;;33.08;23.65;;;1.20;99.90;;;;;;5074683;28;20432;-72
2023/12/05 06:14:23;;;;;;;32.20;24.15;;;1.20;99.90;;;;;;5074528;28;20443;-72
2023/12/05 06:16:49;;;;;;;31.50;24.00;;;1.20;99.90;;;;;;5074550;28;20500;-72
2023/12/05 06:19:14;;;;;;;33.35;24.88;;;1.20;99.90;;;;;;5073120;28;20044;-72
2023/12/05 06:21:40;;;;;;;28.83;22.55;;;1.20;99.90;;;;;;5072697;28;20043;-72
2023/12/05 06:24:08;;;;;;;31.23;23.45;;;1.20;99.90;;;;;;5073217;28;20036;-72
2023/12/05 06:26:34;;;;;;;31.70;23.35;;;1.20;99.90;;;;;;5074348;28;20094;-71
2023/12/05 06:29:03;;;;;;;32.67;24.55;;;1.20;99.90;;;;;;5072720;28;20055;-71
2023/12/05 06:31:29;;;;;;;29.02;22.50;;;1.20;99.90;;;;;;5072802;28;20062;-71
2023/12/05 06:33:54;;;;;;;35.90;25.23;;;1.20;99.90;;;;;;5073847;28;20045;-71
2023/12/05 06:36:20;;;;;;;33.25;23.90;;;1.10;99.90;;;;;;5072694;28;20037;-72
2023/12/05 06:38:45;;;;;;;34.40;24.55;;;1.20;99.90;;;;;;5072831;28;20120;-72
2023/12/05 06:41:11;;;;;;;31.48;23.05;;;1.20;99.90;;;;;;5072508;28;20047;-72
2023/12/05 06:43:37;;;;;;;30.92;23.75;;;1.20;99.90;;;;;;5072520;28;20083;-72
2023/12/05 06:46:03;;;;;;;33.88;24.23;;;1.20;99.90;;;;;;5074032;28;20047;-72
2023/12/05 06:48:28;;;;;;;33.70;24.45;;;1.20;99.90;;;;;;5072407;28;20052;-72
2023/12/05 06:50:54;;;;;;;34.05;24.45;;;1.20;99.90;;;;;;5072250;28;20044;-71
2023/12/05 06:53:19;;;;;;;32.33;24.15;;;1.10;99.90;;;;;;5073804;28;20040;-72
2023/12/05 06:55:47;;;;;;;34.70;24.42;;;1.20;99.90;;;;;;5073839;28;20037;-72
2023/12/05 06:58:12;;;;;;;31.05;23.35;;;1.20;99.90;;;;;;5073799;28;20142;-72
2023/12/05 07:00:38;;;;;;;31.40;23.30;;;1.20;99.90;;;;;;5074507;28;20119;-72
2023/12/05 07:03:03;;;;;;;30.35;23.42;;;1.10;99.90;;;;;;5073415;28;20066;-72
2023/12/05 07:05:29;;;;;;;32.58;23.92;;;1.20;99.90;;;;;;5072206;28;20044;-72
2023/12/05 07:07:56;;;;;;;33.83;24.13;;;1.10;99.90;;;;;;5072101;28;20041;-72
2023/12/05 07:10:22;;;;;;;33.00;24.42;;;1.20;99.90;;;;;;5071996;28;20045;-72
2023/12/05 07:12:48;;;;;;;33.30;24.35;;;1.20;99.90;;;;;;5073633;28;20119;-72
2023/12/05 07:15:13;;;;;;;31.88;23.13;;;1.10;99.90;;;;;;5071972;28;20040;-72
2023/12/05 07:17:39;;;;;;;31.25;23.48;;;1.20;99.90;;;;;;5072290;28;20032;-72
2023/12/05 07:20:06;;;;;;;32.38;22.67;;;1.20;99.90;;;;;;5073446;28;20397;-72
2023/12/05 07:22:33;;;;;;;33.17;23.73;;;1.20;99.90;;;;;;5071893;28;20524;-72
2023/12/05 07:24:58;;;;;;;34.22;24.70;;;1.20;99.90;;;;;;5071917;28;20041;-72
2023/12/05 07:27:24;;;;;;;34.42;25.20;;;1.10;99.90;;;;;;5071907;28;20115;-72
2023/12/05 07:29:49;;;;;;;36.28;24.08;;;1.20;99.90;;;;;;5071859;28;20106;-72
2023/12/05 07:32:15;;;;;;;32.53;23.95;;;1.20;99.90;;;;;;5071843;28;20074;-72
2023/12/05 07:34:42;;;;;;;34.55;23.92;;;1.20;99.90;;;;;;5071286;28;20044;-72
2023/12/05 07:37:07;;;;;;;30.88;23.50;;;1.20;99.90;;;;;;5073295;28;20111;-72
2023/12/05 07:39:33;;;;;;;33.78;24.00;;;1.20;99.90;;;;;;5071773;28;20051;-72
2023/12/05 07:41:59;;;;;;;32.15;23.20;;;1.20;99.90;;;;;;5055084;28;20127;-72
2023/12/05 07:44:25;;;;;;;33.42;23.30;;;1.10;99.90;;;;;;5073275;28;20072;-72
2023/12/05 07:46:50;;;;;;;31.10;23.63;;;1.10;99.90;;;;;;5073218;28;20039;-72
2023/12/05 07:49:16;;;;;;;29.83;22.38;;;1.20;99.90;;;;;;5073171;28;20123;-72
2023/12/05 07:51:42;;;;;;;29.55;22.65;;;1.20;99.90;;;;;;5071960;28;20408;-72
2023/12/05 07:54:07;;;;;;;28.98;21.83;;;1.20;99.90;;;;;;5071602;28;20485;-72
2023/12/05 07:56:33;;;;;;;29.40;22.48;;;1.20;99.90;;;;;;5071754;28;20037;-72
2023/12/05 07:58:59;;;;;;;30.02;21.67;;;1.20;99.90;;;;;;5071551;28;20048;-72
2023/12/05 08:01:25;;;;;;;30.83;22.35;;;1.20;99.90;;;;;;5071611;28;20071;-72
2023/12/05 08:03:50;;;;;;;30.33;22.40;;;1.10;99.90;;;;;;5055568;28;20040;-72
2023/12/05 08:06:16;;;;;;;32.45;23.40;;;1.20;99.90;;;;;;5071536;28;20123;-72
2023/12/05 08:08:41;;;;;;;31.35;22.52;;;1.20;99.90;;;;;;5071978;28;20122;-72
2023/12/05 08:11:09;;;;;;;32.33;22.50;;;1.10;99.90;;;;;;5071501;28;20398;-72
2023/12/05 08:13:36;;;;;;;33.05;22.92;;;1.20;99.90;;;;;;5071445;28;20048;-72
2023/12/05 08:16:01;;;;;;;30.00;22.30;;;1.20;99.90;;;;;;5073382;28;20037;-72
2023/12/05 08:18:27;;;;;;;31.85;22.65;;;1.20;99.90;;;;;;5072176;28;20119;-72
2023/12/05 08:20:53;;;;;;;31.52;23.25;;;1.30;99.90;;;;;;5072014;28;20037;-72
2023/12/05 08:23:20;;;;;;;32.42;22.75;;;1.20;99.90;;;;;;5072516;28;20462;-71
2023/12/05 08:25:45;;;;;;;29.98;22.45;;;1.30;99.90;;;;;;5071350;28;20044;-72
2023/12/05 08:28:12;;;;;;;28.92;21.90;;;1.30;99.90;;;;;;5071707;28;20036;-72
2023/12/05 08:30:37;;;;;;;33.22;22.65;;;1.30;99.90;;;;;;5072445;28;20607;-72
2023/12/05 08:33:05;;;;;;;30.52;22.33;;;1.30;99.90;;;;;;5072799;28;20037;-73
2023/12/05 08:35:31;;;;;;;32.60;22.90;;;1.30;99.90;;;;;;5071195;28;20105;-72
2023/12/05 08:37:56;;;;;;;31.60;23.05;;;1.30;99.90;;;;;;5071226;28;20496;-72
2023/12/05 08:40:22;;;;;;;32.50;22.48;;;1.30;99.90;;;;;;5071421;28;20047;-72
2023/12/05 08:42:48;;;;;;;29.08;21.45;;;1.40;99.90;;;;;;5054529;28;20400;-72
2023/12/05 08:45:14;;;;;;;34.92;23.60;;;1.40;99.90;;;;;;5071680;28;20052;-72
2023/12/05 08:47:39;;;;;;;31.80;22.60;;;1.40;99.90;;;;;;5076458;28;20044;-73
2023/12/05 08:50:07;;;;;;;31.27;22.80;;;1.50;99.90;;;;;;5076181;28;20428;-72
2023/12/05 08:52:33;;;;;;;35.20;22.73;;;1.50;99.90;;;;;;5057963;28;20520;-72
2023/12/05 08:55:00;;;;;;;30.17;22.63;;;1.40;99.90;;;;;;5074518;28;20421;-72
2023/12/05 08:57:26;;;;;;;32.75;23.73;;;1.40;99.90;;;;;;5074581;28;20037;-72
2023/12/05 08:59:52;;;;;;;32.75;22.80;;;1.50;99.90;;;;;;5076006;28;20037;-73
2023/12/05 09:02:19;;;;;;;31.08;22.10;;;1.50;99.90;;;;;;5075989;28;20111;-72
2023/12/05 09:04:45;;;;;;;31.67;22.20;;;1.50;99.90;;;;;;5074511;28;20041;-72
2023/12/05 09:07:10;;;;;;;28.95;22.17;;;1.50;99.90;;;;;;5075933;28;20032;-72
2023/12/05 09:09:36;;;;;;;32.42;23.08;;;1.50;99.90;;;;;;5074363;28;20044;-72
2023/12/05 09:12:02;;;;;;;31.42;23.17;;;1.50;99.90;;;;;;5074353;28;20033;-72
2023/12/05 09:14:28;;;;;;;30.92;23.23;;;1.50;99.90;;;;;;5075737;28;20119;-72
2023/12/05 09:16:54;;;;;;;29.92;21.95;;;1.60;99.90;;;;;;5074600;28;20109;-72
2023/12/05 09:19:19;;;;;;;30.83;22.52;;;1.60;99.90;;;;;;5074156;28;20044;-71
2023/12/05 09:21:45;;;;;;;33.22;23.70;;;1.60;99.90;;;;;;5074014;28;20120;-72
2023/12/05 09:24:11;;;;;;;31.42;22.60;;;1.60;99.90;;;;;;5074101;28;20044;-72
2023/12/05 09:26:37;;;;;;;32.83;23.00;;;1.60;99.90;;;;;;5074366;28;20055;-72
2023/12/05 09:29:03;;;;;;;33.08;23.38;;;1.60;99.90;;;;;;5074284;28;20049;-71
2023/12/05 09:31:30;;;;;;;30.75;22.33;;;1.60;99.90;;;;;;5075656;28;20048;-72
2023/12/05 09:33:56;;;;;;;31.48;22.30;;;1.60;99.90;;;;;;5075406;28;20044;-72
2023/12/05 09:36:22;;;;;;;31.67;22.65;;;1.60;99.90;;;;;;5074295;28;20048;-72
2023/12/05 09:38:47;;;;;;;30.02;22.33;;;1.60;99.90;;;;;;5075424;28;20044;-72
2023/12/05 09:41:15;;;;;;;31.95;23.88;;;1.60;99.90;;;;;;5073703;28;20041;-72
2023/12/05 09:43:42;;;;;;;33.75;23.42;;;1.60;99.90;;;;;;5075239;28;20047;-72
2023/12/05 09:46:10;;;;;;;32.30;23.83;;;1.70;99.90;;;;;;5073691;28;20048;-72
2023/12/05 09:48:47;;;;;;;32.33;22.73;;;1.60;99.90;;;;;;5075131;28;20040;-72
2023/12/05 09:51:15;;;;;;;30.08;22.27;;;1.60;99.90;;;;;;5074982;28;20409;-72
2023/12/05 09:53:42;;;;;;;30.35;22.20;;;1.60;99.90;;;;;;5073859;28;20111;-72
2023/12/05 09:56:10;;;;;;;30.90;22.63;;;1.60;99.90;;;;;;5073129;28;20040;-72
2023/12/05 09:58:41;;;;;;;33.83;24.75;;;1.60;99.90;;;;;;5073638;28;20037;-72
2023/12/05 10:01:09;;;;;;;31.50;22.48;;;1.60;99.90;;;;;;5057005;28;20040;-72
2023/12/05 10:03:38;;;;;;;32.20;23.48;;;1.70;99.90;;;;;;5073318;28;20051;-72
2023/12/05 10:06:06;;;;;;;31.73;23.13;;;1.60;99.90;;;;;;5073295;28;20111;-72
2023/12/05 10:08:33;;;;;;;31.25;22.80;;;1.60;99.90;;;;;;5074763;28;20040;-72
2023/12/05 10:11:00;;;;;;;29.52;22.70;;;1.60;99.90;;;;;;5074626;28;20041;-72
2023/12/05 10:13:26;;;;;;;31.83;23.00;;;1.60;99.90;;;;;;5073355;28;20382;-72
2023/12/05 10:15:52;;;;;;;31.35;23.38;;;1.60;99.90;;;;;;5073125;28;20068;-72
2023/12/05 10:18:18;;;;;;;33.35;24.45;;;1.70;99.90;;;;;;5073082;28;20135;-72
2023/12/05 10:20:44;;;;;;;30.20;22.77;;;1.60;99.90;;;;;;5072920;28;20040;-72
2023/12/05 10:23:10;;;;;;;33.30;24.20;;;1.70;99.90;;;;;;5072799;28;20067;-72
2023/12/05 10:25:35;;;;;;;30.20;22.52;;;1.70;99.90;;;;;;5074423;28;20051;-72
2023/12/05 10:28:06;;;;;;;31.52;22.92;;;1.70;99.90;;;;;;5056162;28;20045;-72
2023/12/05 10:30:33;;;;;;;33.83;24.13;;;1.70;99.90;;;;;;5072722;28;20045;-72
2023/12/05 10:33:09;;;;;;;32.97;23.60;;;1.70;99.90;;;;;;5072765;28;20055;-72
2023/12/05 10:35:35;;;;;;;32.58;23.83;;;1.70;99.90;;;;;;5073018;28;20047;-72
2023/12/05 10:38:05;;;;;;;32.63;23.30;;;1.70;99.90;;;;;;5072641;28;20033;-72
2023/12/05 10:40:55;;;;;;;31.38;23.05;;;1.70;99.90;;;;;;5072779;28;20056;-72
2023/12/05 10:43:23;;;;;;;35.10;24.27;;;1.80;99.90;;;;;;5072843;28;20040;-71
2023/12/05 10:45:49;;;;;;;32.78;23.95;;;1.80;99.90;;;;;;5072980;28;20045;-71
2023/12/05 10:48:15;;;;;;;32.80;23.23;;;1.80;99.90;;;;;;5072597;28;20036;-71
2023/12/05 10:50:43;;;;;;;31.17;23.15;;;1.80;99.90;;;;;;5074033;28;20044;-71
2023/12/05 10:53:09;;;;;;;32.35;24.05;;;1.80;99.90;;;;;;5074085;28;20062;-72
2023/12/05 10:55:35;;;;;;;32.80;23.25;;;1.80;99.90;;;;;;5056005;28;20044;-72
2023/12/05 10:58:02;;;;;;;34.38;25.48;;;1.80;99.90;;;;;;5072328;28;20117;-71
2023/12/05 11:00:28;;;;;;;33.60;24.42;;;1.80;99.90;;;;;;5073813;28;20043;-71
2023/12/05 11:02:55;;;;;;;32.88;23.80;;;1.80;99.90;;;;;;5072450;28;20036;-71
2023/12/05 11:05:21;;;;;;;33.38;24.08;;;1.70;99.90;;;;;;5072183;28;20124;-72
2023/12/05 11:07:47;;;;;;;30.50;23.40;;;1.70;99.90;;;;;;5071626;28;20412;-71
2023/12/05 11:10:13;;;;;;;33.22;24.65;;;1.70;99.90;;;;;;5071784;28;20044;-71
2023/12/05 11:12:40;;;;;;;32.92;23.58;;;1.70;99.90;;;;;;5073623;28;20083;-71
2023/12/05 11:15:08;;;;;;;33.92;24.77;;;1.70;99.90;;;;;;5072081;28;20493;-71
2023/12/05 11:17:47;;;;;;;34.55;25.00;;;1.80;99.90;;;;;;5071983;28;20036;-71
2023/12/05 11:20:28;;;;;;;36.15;25.30;;;1.80;99.90;;;;;;5072206;28;20127;-71
2023/12/05 11:22:56;;;;;;;33.78;24.67;;;1.90;99.90;;;;;;5072305;28;20064;-72
2023/12/05 11:25:58;;;;;;;32.50;24.42;;;1.90;99.90;;;;;;5071930;28;20101;-72
2023/12/05 11:28:47;;;;;;;31.45;24.02;;;2.00;99.90;;;;;;5071777;28;20051;-72
2023/12/05 11:31:51;;;;;;;31.85;23.80;;;2.00;99.90;;;;;;5071853;28;20052;-72
2023/12/05 11:34:48;;;;;;;30.33;22.38;;;2.10;99.90;;;;;;5055265;28;20051;-72
2023/12/05 11:38:04;;;;;;;30.70;22.92;;;2.10;99.90;;;;;;5073368;28;20036;-72
2023/12/05 11:40:29;;;;;;;30.08;22.77;;;2.10;99.90;;;;;;5063351;28;20135;-71
2023/12/05 11:43:08;;;;;;;28.30;22.30;;;2.10;99.90;;;;;;5072024;28;20125;-72
2023/12/05 11:45:42;;;;;;;29.63;22.58;;;2.10;99.90;;;;;;5071725;28;20424;-72
2023/12/05 11:48:11;;;;;;;;;;;2.00;99.90;;;;;;5073731;28;20147;-72
2023/12/05 11:50:49;;;;;;;29.52;21.52;;;2.00;99.90;;;;;;5073186;28;19954;-72
2023/12/05 11:53:18;;;;;;;31.63;23.10;;;2.00;99.90;;;;;;5072950;28;20409;-72
2023/12/05 11:55:47;;;;;;;29.63;22.58;;;2.00;99.90;;;;;;5073087;28;20040;-72
2023/12/05 11:58:32;;;;;;;30.98;23.30;;;2.00;99.90;;;;;;5073139;28;20043;-72
2023/12/05 12:01:14;;;;;;;34.55;23.77;;;2.00;99.90;;;;;;5055145;28;20036;-72
2023/12/05 12:03:44;;;;;;;31.15;22.08;;;1.90;99.90;;;;;;5072341;28;20389;-72
2023/12/05 12:06:10;;;;;;;32.63;23.73;;;1.90;99.90;;;;;;5071656;28;20036;-72
2023/12/05 12:08:36;;;;;;;30.90;22.67;;;1.90;99.90;;;;;;5073128;28;20028;-72
2023/12/05 12:11:03;;;;;;;32.65;23.90;;;1.80;99.90;;;;;;5071853;28;20040;-72
2023/12/05 12:13:29;;;;;;;30.77;22.35;;;1.80;99.90;;;;;;5073156;28;20119;-72
2023/12/05 12:15:55;;;;;;;29.30;22.27;;;1.80;99.90;;;;;;5071548;28;20115;-72
2023/12/05 12:18:25;;;;;;;34.25;23.65;;;1.70;99.90;;;;;;5072988;28;20042;-72
2023/12/05 12:20:51;;;;;;;30.45;22.02;;;1.80;99.90;;;;;;5074288;28;20040;-71
2023/12/05 12:23:18;;;;;;;31.52;22.50;;;1.80;99.90;;;;;;5075283;28;20566;-71
2023/12/05 12:25:57;;;;;;;34.40;24.52;;;1.80;99.90;;;;;;5076681;28;20090;-72
2023/12/05 12:28:30;;;;;;;33.70;23.70;;;1.80;99.90;;;;;;5075162;28;20048;-72
2023/12/05 12:31:00;;;;;;;32.00;22.83;;;1.80;99.90;;;;;;5075312;28;20497;-72
2023/12/05 12:33:38;;;;;;;31.73;23.52;;;1.80;99.90;;;;;;5076590;28;20045;-72
2023/12/05 12:36:05;;;;;;;35.90;23.80;;;1.80;99.90;;;;;;5075023;28;20041;-71
2023/12/05 12:38:33;;;;;;;32.97;22.60;;;1.80;99.90;;;;;;5074936;28;20036;-71